createdAt,value
2023-03-06T00:02:41.181Z,4.57
2023-03-06T00:05:42.856Z,4.20
2023-03-06T00:08:44.538Z,4.35
2023-03-06T00:11:46.127Z,4.40
2023-03-06T00:14:47.749Z,4.30
2023-03-06T00:17:49.402Z,3.92
2023-03-06T00:20:50.971Z,4.20
2023-03-06T00:23:52.590Z,4.10
2023-03-06T00:26:54.194Z,4.85
2023-03-06T00:29:56.612Z,4.40
2023-03-06T00:32:58.230Z,5.13
2023-03-06T00:35:59.827Z,4.77
2023-03-06T00:39:05.806Z,4.72
2023-03-06T00:42:10.313Z,4.85
2023-03-06T00:45:12.057Z,4.80
2023-03-06T00:48:13.671Z,4.70
2023-03-06T00:51:16.622Z,5.22
2023-03-06T00:54:21.615Z,5.60
2023-03-06T00:57:26.356Z,5.50
2023-03-06T01:00:27.953Z,5.05
2023-03-06T01:03:29.642Z,5.10
2023-03-06T01:06:31.297Z,4.93
2023-03-06T01:09:35.689Z,4.73
2023-03-06T01:12:40.286Z,5.35
2023-03-06T01:15:41.913Z,4.95
2023-03-06T01:18:43.537Z,5.07
2023-03-06T01:21:45.157Z,5.43
2023-03-06T01:24:46.723Z,5.10
2023-03-06T01:27:51.672Z,5.10
2023-03-06T01:30:56.281Z,4.95
2023-03-06T01:33:57.876Z,5.03
2023-03-06T01:36:59.512Z,4.50
2023-03-06T01:40:04.728Z,4.80
2023-03-06T01:43:24.735Z,5.03
2023-03-06T01:46:29.343Z,4.38
2023-03-06T01:49:34.078Z,5.32
2023-03-06T01:52:38.185Z,4.30
2023-03-06T01:55:44.093Z,4.50
2023-03-06T01:58:46.277Z,4.85
2023-03-06T02:01:48.160Z,4.55
2023-03-06T02:04:49.821Z,4.87
2023-03-06T02:07:52.725Z,4.10
2023-03-06T02:11:19.604Z,4.95
2023-03-06T02:14:24.426Z,4.47
2023-03-06T02:17:29.914Z,4.73
2023-03-06T02:20:46.713Z,4.95
2023-03-06T02:24:16.085Z,8.48
2023-03-06T02:27:17.811Z,10.65
2023-03-06T02:30:19.426Z,10.95
2023-03-06T02:33:23.245Z,8.77
2023-03-06T02:36:24.839Z,8.80
2023-03-06T02:39:31.015Z,6.07
2023-03-06T02:42:35.633Z,5.70
2023-03-06T02:45:39.049Z,4.53
2023-03-06T02:48:40.670Z,4.78
2023-03-06T02:51:42.340Z,5.13
2023-03-06T02:54:43.924Z,5.28
2023-03-06T02:57:48.760Z,7.10
2023-03-06T03:00:50.465Z,6.70
2023-03-06T03:03:52.101Z,6.18
2023-03-06T03:06:53.726Z,5.13
2023-03-06T03:09:55.343Z,6.57
2023-03-06T03:13:01.950Z,8.13
2023-03-06T03:16:05.540Z,7.72
2023-03-06T03:19:11.204Z,7.57
2023-03-06T03:22:12.981Z,5.20
2023-03-06T03:25:14.580Z,4.40
2023-03-06T03:28:19.608Z,5.28
2023-03-06T03:31:25.206Z,5.43
2023-03-06T03:34:26.933Z,4.70
2023-03-06T03:37:28.543Z,4.93
2023-03-06T03:40:30.169Z,5.15
2023-03-06T03:43:34.602Z,4.90
2023-03-06T03:46:40.162Z,5.40
2023-03-06T03:49:41.754Z,5.22
2023-03-06T03:52:43.457Z,5.72
2023-03-06T03:55:47.285Z,5.28
2023-03-06T03:58:53.178Z,5.13
2023-03-06T04:01:59.645Z,5.43
2023-03-06T04:05:01.345Z,7.18
2023-03-06T04:08:03.338Z,8.95
2023-03-06T04:11:08.989Z,13.38
2023-03-06T04:14:10.599Z,10.57
2023-03-06T04:17:12.209Z,7.82
2023-03-06T04:20:14.613Z,7.00
2023-03-06T04:23:16.280Z,7.75
2023-03-06T04:26:22.106Z,5.78
2023-03-06T04:29:26.712Z,5.95
2023-03-06T04:32:28.421Z,5.70
2023-03-06T04:35:30.156Z,5.43
2023-03-06T04:38:31.801Z,5.82
2023-03-06T04:41:33.736Z,5.53
2023-03-06T04:44:38.983Z,5.27
2023-03-06T04:47:40.591Z,5.10
2023-03-06T04:50:42.262Z,6.18
2023-03-06T04:53:43.878Z,5.50
2023-03-06T04:56:45.496Z,5.97
2023-03-06T04:59:51.259Z,6.38
2023-03-06T05:02:52.929Z,5.85
2023-03-06T05:05:54.510Z,5.93
2023-03-06T05:08:56.162Z,6.72
2023-03-06T05:11:57.744Z,6.78
2023-03-06T05:15:02.592Z,6.72
2023-03-06T05:18:08.109Z,5.73
2023-03-06T05:21:09.770Z,7.22
2023-03-06T05:24:11.378Z,7.18
2023-03-06T05:27:17.001Z,8.85
2023-03-06T05:30:18.770Z,8.73
2023-03-06T05:33:23.978Z,8.63
2023-03-06T05:36:25.685Z,8.27
2023-03-06T05:39:30.508Z,7.60
2023-03-06T05:42:36.040Z,8.20
2023-03-06T05:45:41.608Z,8.60
2023-03-06T05:48:44.165Z,8.25
2023-03-06T05:51:46.389Z,8.85
2023-03-06T05:54:50.626Z,7.53
2023-03-06T05:57:52.283Z,7.85
2023-03-06T06:00:53.964Z,9.27
2023-03-06T06:03:55.624Z,8.25
2023-03-06T06:06:59.158Z,9.10
2023-03-06T06:10:03.475Z,9.75
2023-03-06T06:13:05.425Z,9.90
2023-03-06T06:16:11.680Z,9.48
2023-03-06T06:19:18.713Z,10.73
2023-03-06T06:22:20.425Z,11.43
2023-03-06T06:25:22.735Z,11.10
2023-03-06T06:28:24.352Z,11.95
2023-03-06T06:31:26.216Z,9.10
2023-03-06T06:34:28.145Z,8.38
2023-03-06T06:37:30.253Z,7.40
2023-03-06T06:40:31.852Z,7.15
2023-03-06T06:43:33.459Z,7.20
2023-03-06T06:49:57.438Z,6.68
2023-03-06T06:52:59.221Z,7.22
2023-03-06T06:56:00.946Z,7.23
2023-03-06T06:59:15.767Z,6.20
2023-03-06T07:02:18.763Z,6.32
2023-03-06T07:05:21.798Z,6.72
2023-03-06T07:08:23.821Z,7.63
2023-03-06T07:11:25.492Z,6.72
2023-03-06T07:14:27.370Z,6.65
2023-03-06T07:17:29.188Z,6.30
2023-03-06T07:20:31.969Z,6.22
2023-03-06T07:23:33.609Z,7.07
2023-03-06T07:26:35.298Z,6.60
2023-03-06T07:29:36.962Z,6.73
2023-03-06T07:32:38.705Z,5.72
2023-03-06T07:35:43.929Z,6.40
2023-03-06T07:38:45.837Z,6.07
2023-03-06T07:41:47.569Z,6.83
2023-03-06T07:44:49.242Z,7.15
2023-03-06T07:47:51.376Z,7.13
2023-03-06T07:51:00.602Z,6.95
2023-03-06T07:54:02.328Z,7.10
2023-03-06T07:57:03.995Z,7.55
2023-03-06T08:00:06.808Z,7.85
2023-03-06T08:03:10.433Z,7.28
2023-03-06T08:06:17.064Z,7.35
2023-03-06T08:09:18.993Z,7.88
2023-03-06T08:12:20.572Z,7.38
2023-03-06T08:15:22.207Z,7.70
2023-03-06T08:18:23.880Z,7.37
2023-03-06T08:21:26.707Z,6.53
2023-03-06T08:24:28.433Z,7.70
2023-03-06T08:27:31.966Z,7.80
2023-03-06T08:30:33.624Z,8.67
2023-03-06T08:33:35.836Z,8.82
2023-03-06T08:36:37.499Z,7.53
2023-03-06T08:39:39.157Z,8.85
2023-03-06T08:42:40.928Z,9.00
2023-03-06T08:45:42.565Z,8.07
2023-03-06T08:48:44.695Z,8.57
2023-03-06T08:51:46.329Z,7.57
2023-03-06T08:54:47.955Z,6.68
2023-03-06T08:57:49.622Z,7.20
2023-03-06T09:00:52.098Z,7.80
2023-03-06T09:03:54.823Z,7.80
2023-03-06T09:06:56.503Z,6.80
2023-03-06T09:09:58.571Z,7.55
2023-03-06T09:13:00.881Z,7.13
2023-03-06T09:16:06.404Z,7.80
2023-03-06T09:19:08.171Z,7.10
2023-03-06T09:22:10.057Z,7.13
2023-03-06T09:25:13.482Z,7.10
2023-03-06T09:28:15.116Z,7.20
2023-03-06T09:31:22.213Z,6.97
2023-03-06T09:34:23.896Z,7.65
2023-03-06T09:37:25.596Z,7.63
2023-03-06T09:40:50.061Z,7.93
2023-03-06T09:43:54.286Z,7.23
2023-03-06T09:47:23.895Z,7.85
2023-03-06T09:50:25.659Z,8.18
2023-03-06T09:53:45.510Z,7.38
2023-03-06T09:56:48.722Z,6.95
2023-03-06T09:59:53.479Z,7.60
2023-03-06T10:03:10.586Z,7.25
2023-03-06T10:06:18.469Z,7.80
2023-03-06T10:09:32.344Z,7.78
2023-03-06T10:12:39.203Z,7.10
2023-03-06T10:15:41.552Z,8.02
2023-03-06T10:18:43.286Z,7.80
2023-03-06T10:22:20.927Z,8.13
2023-03-06T10:25:31.077Z,7.50
2023-03-06T10:28:57.805Z,7.45
2023-03-06T10:32:30.540Z,8.30
2023-03-06T10:35:48.622Z,7.53
2023-03-06T10:38:50.440Z,7.45
2023-03-06T10:41:52.034Z,7.50
2023-03-06T10:45:14.783Z,8.00
2023-03-06T10:48:20.042Z,8.77
2023-03-06T10:51:23.219Z,8.02
2023-03-06T10:54:25.078Z,8.02
2023-03-06T10:57:31.047Z,7.70
2023-03-06T11:00:36.111Z,7.13
2023-03-06T11:03:37.967Z,7.47
2023-03-06T11:06:39.956Z,7.35
2023-03-06T11:09:58.518Z,7.72
2023-03-06T11:13:07.711Z,7.93
2023-03-06T11:16:25.524Z,8.17
2023-03-06T11:19:28.979Z,8.67
2023-03-06T11:22:30.636Z,8.57
2023-03-06T11:25:41.442Z,8.27
2023-03-06T11:28:47.152Z,8.20
2023-03-06T11:32:15.334Z,7.97
2023-03-06T11:35:27.580Z,9.07
2023-03-06T11:38:50.926Z,9.55
2023-03-06T11:42:17.437Z,9.30
2023-03-06T11:45:25.632Z,8.23
2023-03-06T11:48:31.915Z,10.13
2023-03-06T11:51:35.473Z,9.20
2023-03-06T11:54:37.228Z,9.18
2023-03-06T11:58:08.264Z,10.10
2023-03-06T12:01:12.969Z,9.90
2023-03-06T12:04:38.474Z,8.90
2023-03-06T12:08:16.913Z,9.27
2023-03-06T12:11:30.689Z,10.82
2023-03-06T12:14:53.075Z,16.15
2023-03-06T12:18:04.598Z,12.35
2023-03-06T12:21:28.018Z,10.00
2023-03-06T12:24:42.846Z,12.30
2023-03-06T12:28:15.356Z,10.70
2023-03-06T12:31:26.055Z,10.60
2023-03-06T12:34:58.732Z,9.80
2023-03-06T12:38:19.212Z,14.03
2023-03-06T12:41:39.774Z,11.10
2023-03-06T12:45:03.162Z,10.85
2023-03-06T12:48:15.427Z,10.98
2023-03-06T12:51:18.154Z,15.38
2023-03-06T12:54:21.584Z,11.97
2023-03-06T12:57:23.932Z,11.20
2023-03-06T13:00:58.747Z,11.70
2023-03-06T13:04:35.732Z,11.07
2023-03-06T13:07:52.847Z,11.90
2023-03-06T13:11:16.480Z,13.03
2023-03-06T13:14:53.871Z,11.70
2023-03-06T13:17:56.893Z,12.93
2023-03-06T13:20:58.629Z,17.30
2023-03-06T13:24:14.317Z,24.70
2023-03-06T13:27:16.058Z,20.20
2023-03-06T13:30:36.511Z,14.13
2023-03-06T13:33:38.281Z,12.00
2023-03-06T13:36:40.022Z,19.67
2023-03-06T13:40:10.764Z,25.05
2023-03-06T13:43:15.361Z,10.90
2023-03-06T13:46:25.920Z,19.83
2023-03-06T13:49:27.771Z,25.60
2023-03-06T13:52:40.028Z,12.73
2023-03-06T13:56:01.876Z,12.45
2023-03-06T13:59:27.998Z,10.00
2023-03-06T14:02:54.880Z,10.43
2023-03-06T14:05:56.982Z,10.95
2023-03-06T14:08:58.592Z,11.27
2023-03-06T14:12:07.248Z,26.70
2023-03-06T14:15:32.233Z,20.83
2023-03-06T14:18:46.264Z,22.03
2023-03-06T14:21:49.776Z,27.88
2023-03-06T14:25:00.849Z,20.33
2023-03-06T14:28:13.648Z,13.75
2023-03-06T14:31:25.744Z,14.10
2023-03-06T14:34:36.393Z,11.67
2023-03-06T14:37:38.109Z,9.90
2023-03-06T14:40:43.838Z,10.75
2023-03-06T14:43:45.457Z,10.30
2023-03-06T14:47:11.561Z,11.93
2023-03-06T14:50:21.837Z,25.37
2023-03-06T14:53:30.584Z,18.95
2023-03-06T14:56:32.186Z,12.68
2023-03-06T14:59:55.926Z,11.23
2023-03-06T15:02:57.986Z,9.63
2023-03-06T15:05:59.762Z,9.73
2023-03-06T15:09:07.635Z,10.93
2023-03-06T15:12:18.594Z,10.15
2023-03-06T15:15:29.653Z,10.70
2023-03-06T15:18:38.885Z,10.47
2023-03-06T15:21:43.473Z,10.13
2023-03-06T15:24:45.072Z,10.20
2023-03-06T15:27:50.534Z,10.20
2023-03-06T15:31:10.862Z,11.23
2023-03-06T15:34:12.525Z,11.47
2023-03-06T15:37:30.871Z,11.13
2023-03-06T15:40:33.033Z,11.07
2023-03-06T15:43:37.009Z,11.93
2023-03-06T15:46:38.713Z,10.77
2023-03-06T15:49:40.576Z,11.97
2023-03-06T15:52:46.785Z,12.03
2023-03-06T15:55:48.798Z,12.20
2023-03-06T15:58:50.408Z,11.18
2023-03-06T16:01:52.030Z,10.80
2023-03-06T16:04:53.852Z,12.37
2023-03-06T16:07:55.822Z,11.57
2023-03-06T16:10:57.437Z,12.07
2023-03-06T16:14:00.314Z,11.95
2023-03-06T16:17:02.090Z,13.23
2023-03-06T16:20:04.021Z,12.70
2023-03-06T16:23:09.989Z,12.57
2023-03-06T16:26:31.785Z,18.15
2023-03-06T16:29:33.606Z,28.80
2023-03-06T16:32:35.362Z,38.38
2023-03-06T16:35:37.104Z,30.70
2023-03-06T16:38:42.379Z,34.50
2023-03-06T16:41:45.897Z,28.13
2023-03-06T16:44:47.583Z,33.60
2023-03-06T16:47:49.288Z,39.90
2023-03-06T16:50:51.006Z,37.27
2023-03-06T16:53:55.594Z,21.15
2023-03-06T16:56:57.308Z,15.63
2023-03-06T16:59:58.922Z,12.43
2023-03-06T17:03:02.975Z,11.23
2023-03-06T17:06:04.934Z,11.20
2023-03-06T17:09:10.516Z,13.00
2023-03-06T17:12:12.173Z,12.68
2023-03-06T17:15:13.768Z,13.60
2023-03-06T17:18:15.442Z,13.23
2023-03-06T17:21:17.116Z,12.90
2023-03-06T17:24:22.817Z,10.85
2023-03-06T17:27:27.381Z,10.25
2023-03-06T17:30:32.009Z,9.82
2023-03-06T17:33:33.670Z,9.67
2023-03-06T17:36:35.322Z,9.88
2023-03-06T17:39:40.485Z,10.20
2023-03-06T17:42:42.048Z,10.98
2023-03-06T17:45:47.913Z,9.87
2023-03-06T17:48:49.486Z,10.75
2023-03-06T17:51:56.517Z,10.43
2023-03-06T17:55:01.767Z,11.00
2023-03-06T17:58:06.367Z,10.67
2023-03-06T18:01:15.461Z,10.20
2023-03-06T18:04:17.285Z,11.55
2023-03-06T18:07:18.872Z,10.23
2023-03-06T18:10:24.843Z,11.03
2023-03-06T18:13:29.422Z,10.32
2023-03-06T18:16:31.305Z,11.40
2023-03-06T18:19:33.007Z,10.52
2023-03-06T18:22:34.813Z,10.67
2023-03-06T18:25:40.666Z,10.68
2023-03-06T18:28:48.924Z,10.68
2023-03-06T18:31:50.700Z,9.90
2023-03-06T18:34:52.482Z,11.03
2023-03-06T18:37:54.106Z,10.85
2023-03-06T18:40:59.234Z,10.68
2023-03-06T18:44:05.684Z,10.70
2023-03-06T18:47:10.317Z,10.57
2023-03-06T18:50:16.541Z,11.88
2023-03-06T18:53:18.680Z,12.13
2023-03-06T18:56:24.127Z,12.57
2023-03-06T18:59:26.062Z,13.70
2023-03-06T19:02:30.653Z,14.45
2023-03-06T19:05:32.361Z,15.27
2023-03-06T19:08:34.362Z,15.27
2023-03-06T19:11:35.986Z,14.57
2023-03-06T19:14:41.940Z,15.13
2023-03-06T19:17:46.556Z,14.20
2023-03-06T19:20:51.207Z,14.30
2023-03-06T19:23:52.867Z,14.68
2023-03-06T19:26:57.711Z,14.25
2023-03-06T19:30:02.295Z,15.98
2023-03-06T19:33:03.948Z,15.40
2023-03-06T19:36:06.596Z,16.13
2023-03-06T19:39:09.119Z,16.65
2023-03-06T19:42:12.881Z,16.52
2023-03-06T19:45:19.994Z,17.15
2023-03-06T19:48:24.587Z,17.07
2023-03-06T19:51:31.000Z,17.13
2023-03-06T19:54:32.874Z,17.17
2023-03-06T19:57:37.536Z,17.60
2023-03-06T20:00:43.059Z,17.77
2023-03-06T20:03:44.758Z,17.25
2023-03-06T20:06:48.153Z,16.88
2023-03-06T20:09:50.216Z,17.50
2023-03-06T20:12:51.838Z,15.98
2023-03-06T20:15:58.061Z,16.83
2023-03-06T20:19:00.520Z,17.00
2023-03-06T20:22:05.440Z,17.70
2023-03-06T20:25:11.836Z,18.08
2023-03-06T20:28:13.456Z,19.45
2023-03-06T20:31:23.835Z,19.90
2023-03-06T20:34:25.907Z,19.27
2023-03-06T20:37:27.810Z,20.47
2023-03-06T20:40:29.401Z,20.20
2023-03-06T20:43:35.038Z,19.05
2023-03-06T20:46:36.639Z,18.00
2023-03-06T20:49:41.549Z,18.52
2023-03-06T20:52:43.127Z,17.92
2023-03-06T20:55:45.593Z,17.55
2023-03-06T20:58:51.810Z,18.50
2023-03-06T21:01:56.463Z,16.75
2023-03-06T21:05:00.126Z,17.50
2023-03-06T21:08:01.788Z,16.50
2023-03-06T21:11:03.469Z,17.60
2023-03-06T21:14:08.576Z,16.23
2023-03-06T21:17:14.099Z,16.65
2023-03-06T21:20:19.605Z,16.25
2023-03-06T21:23:21.178Z,16.83
2023-03-06T21:26:24.434Z,15.93
2023-03-06T21:29:26.040Z,18.15
2023-03-06T21:32:31.813Z,16.98
2023-03-06T21:35:41.846Z,16.60
2023-03-06T21:38:43.483Z,17.50
2023-03-06T21:41:48.282Z,16.35
2023-03-06T21:44:49.905Z,16.58
2023-03-06T21:47:54.826Z,16.23
2023-03-06T21:51:07.295Z,16.50
2023-03-06T21:54:13.978Z,15.88
2023-03-06T21:57:15.577Z,16.00
2023-03-06T22:00:21.370Z,16.37
2023-03-06T22:03:23.004Z,15.77
2023-03-06T22:06:25.910Z,15.70
2023-03-06T22:09:27.541Z,16.52
2023-03-06T22:12:29.162Z,15.67
2023-03-06T22:15:34.578Z,14.75
2023-03-06T22:18:43.702Z,11.63
2023-03-06T22:21:45.329Z,10.20
2023-03-06T22:24:48.023Z,9.10
2023-03-06T22:27:49.612Z,8.95
2023-03-06T22:30:54.941Z,8.30
2023-03-06T22:34:01.366Z,8.30
2023-03-06T22:37:02.972Z,9.43
2023-03-06T22:40:07.918Z,9.02
2023-03-06T22:43:09.517Z,8.75
2023-03-06T22:46:17.172Z,8.75
2023-03-06T22:49:22.627Z,10.27
2023-03-06T22:52:28.125Z,8.95
2023-03-06T22:55:29.780Z,10.35
2023-03-06T22:58:37.126Z,10.60
2023-03-06T23:01:42.911Z,10.07
2023-03-06T23:04:48.396Z,9.77
2023-03-06T23:07:50.014Z,8.95
2023-03-06T23:10:51.608Z,8.73
2023-03-06T23:13:53.367Z,9.88
2023-03-06T23:16:57.842Z,10.38
2023-03-06T23:20:02.499Z,8.68
2023-03-06T23:23:04.084Z,8.63
2023-03-06T23:26:09.929Z,8.70
2023-03-06T23:29:11.601Z,9.23
2023-03-06T23:32:13.189Z,8.50
2023-03-06T23:35:18.350Z,8.18
2023-03-06T23:38:23.851Z,8.07
2023-03-06T23:41:25.566Z,7.50
2023-03-06T23:44:30.364Z,7.68
2023-03-06T23:47:35.876Z,8.10
2023-03-06T23:50:44.117Z,8.43
2023-03-06T23:53:49.641Z,8.13
2023-03-06T23:56:51.239Z,8.07
2023-03-06T23:59:57.087Z,8.57
